Time,TemperatureF,DewpointF,PressureIn,WindDirection,WindDirectionDegrees,WindSpeedMPH,WindSpeedGustMPH,Humidity,HourlyPrecipIn,Conditions,Clouds,dailyrainin,SoftwareType,DateUTC
2013-04-18 00:07:00,60.5,47.9,30.23,North,0,1.3,3.4,63,0.00,,,0.00,WUHU216HW,2013-04-18 04:07:00,
2013-04-18 00:22:00,60.1,47.1,30.23,East,90,0.2,2.2,62,0.00,,,0.00,WUHU216HW,2013-04-18 04:22:00,
2013-04-18 00:37:00,58.0,44.2,30.23,North,0,0.4,2.2,60,0.00,,,0.00,WUHU216HW,2013-04-18 04:37:00,
2013-04-18 00:52:00,57.1,44.6,30.22,SSE,158,1.8,1.8,63,0.00,,,0.00,WUHU216HW,2013-04-18 04:52:00,
2013-04-18 01:07:00,59.4,50.4,30.22,SE,135,3.8,3.8,72,0.00,,,0.00,WUHU216HW,2013-04-18 05:07:00,
2013-04-18 01:22:00,60.3,51.3,30.21,ESE,113,4.7,4.7,72,0.00,,,0.00,WUHU216HW,2013-04-18 05:22:00,
2013-04-18 01:37:00,60.7,52.7,30.19,SSE,158,3.8,5.8,75,0.00,,,0.00,WUHU216HW,2013-04-18 05:37:00,
2013-04-18 01:52:00,61.0,53.8,30.18,South,180,1.8,6.9,77,0.00,,,0.00,WUHU216HW,2013-04-18 05:52:00,
2013-04-18 02:07:00,61.2,54.0,30.16,South,180,1.8,4.7,77,0.00,,,0.00,WUHU216HW,2013-04-18 06:07:00,
2013-04-18 02:22:00,61.2,54.0,30.15,South,180,2.0,3.6,77,0.00,,,0.00,WUHU216HW,2013-04-18 06:22:00,
2013-04-18 02:37:00,61.2,54.0,30.15,SE,135,2.5,3.4,77,0.00,,,0.00,WUHU216HW,2013-04-18 06:37:00,
2013-04-18 02:52:00,61.4,54.5,30.14,SE,135,3.1,3.6,78,0.00,,,0.00,WUHU216HW,2013-04-18 06:52:00,
2013-04-18 03:07:00,61.4,54.8,30.12,ESE,113,2.5,5.1,79,0.00,,,0.00,WUHU216HW,2013-04-18 07:07:00,
2013-04-18 03:22:00,61.4,54.8,30.11,SSE,158,5.4,9.2,79,0.00,,,0.00,WUHU216HW,2013-04-18 07:22:00,
2013-04-18 03:37:00,61.4,54.8,30.10,ESE,113,4.3,6.3,79,0.00,,,0.00,WUHU216HW,2013-04-18 07:37:00,
2013-04-18 03:52:00,61.6,55.0,30.10,ESE,113,4.7,5.4,79,0.00,,,0.00,WUHU216HW,2013-04-18 07:52:00,
2013-04-18 04:08:00,61.6,55.0,30.10,SE,135,4.7,4.9,79,0.00,,,0.00,WUHU216HW,2013-04-18 08:08:00,
2013-04-18 04:23:00,61.6,55.0,30.09,SE,135,2.7,4.7,79,0.00,,,0.00,WUHU216HW,2013-04-18 08:23:00,
2013-04-18 04:38:00,61.6,55.4,30.10,SSE,158,2.5,4.7,80,0.00,,,0.00,WUHU216HW,2013-04-18 08:38:00,
2013-04-18 04:53:00,61.6,55.4,30.10,ESE,113,2.0,3.4,80,0.00,,,0.00,WUHU216HW,2013-04-18 08:53:00,
2013-04-18 05:08:00,61.2,55.1,30.09,ESE,113,3.4,4.7,80,0.00,,,0.00,WUHU216HW,2013-04-18 09:08:00,
2013-04-18 05:23:00,61.0,54.9,30.08,SE,135,6.3,6.3,80,0.00,,,0.00,WUHU216HW,2013-04-18 09:23:00,
2013-04-18 05:38:00,61.2,55.4,30.08,SE,135,2.5,4.7,81,0.00,,,0.00,WUHU216HW,2013-04-18 09:38:00,
2013-04-18 05:53:00,61.6,55.7,30.08,SE,135,4.5,4.7,81,0.00,,,0.00,WUHU216HW,2013-04-18 09:53:00,
2013-04-18 06:08:00,61.6,55.7,30.08,East,90,2.9,6.3,81,0.00,,,0.00,WUHU216HW,2013-04-18 10:08:00,
2013-04-18 06:23:00,61.6,55.7,30.08,ESE,113,2.5,6.5,81,0.00,,,0.00,WUHU216HW,2013-04-18 10:23:00,
2013-04-18 06:38:00,61.7,55.9,30.08,South,180,3.8,5.6,81,0.00,,,0.00,WUHU216HW,2013-04-18 10:38:00,
2013-04-18 06:53:00,61.7,55.9,30.09,SSE,158,4.5,4.7,81,0.00,,,0.00,WUHU216HW,2013-04-18 10:53:00,
2013-04-18 07:08:00,61.7,55.9,30.09,East,90,3.4,6.3,81,0.00,,,0.00,WUHU216HW,2013-04-18 11:08:00,
2013-04-18 07:23:00,61.9,56.1,30.09,South,180,1.6,6.0,81,0.00,,,0.00,WUHU216HW,2013-04-18 11:23:00,
2013-04-18 07:38:00,62.3,56.0,30.08,SSW,203,2.5,5.8,80,0.00,,,0.00,WUHU216HW,2013-04-18 11:38:00,
2013-04-18 07:53:00,62.8,56.2,30.08,SE,135,2.5,5.4,79,0.00,,,0.00,WUHU216HW,2013-04-18 11:53:00,
2013-04-18 08:08:00,63.4,56.3,30.08,SE,135,4.9,6.3,78,0.00,,,0.00,WUHU216HW,2013-04-18 12:08:00,
2013-04-18 08:23:00,63.9,56.9,30.07,SSE,158,8.3,8.3,78,0.00,,,0.00,WUHU216HW,2013-04-18 12:23:00,
2013-04-18 08:39:00,65.2,57.1,30.07,ESE,113,5.6,7.6,75,0.00,,,0.00,WUHU216HW,2013-04-18 12:39:00,
2013-04-18 08:54:00,67.1,57.8,30.07,SE,135,3.4,7.6,72,0.00,,,0.00,WUHU216HW,2013-04-18 12:54:00,
2013-04-18 09:09:00,68.6,58.4,30.06,ESE,113,4.0,9.4,70,0.00,,,0.00,WUHU216HW,2013-04-18 13:09:00,
2013-04-18 09:24:00,69.7,58.6,30.06,ESE,113,1.3,5.8,68,0.00,,,0.00,WUHU216HW,2013-04-18 13:24:00,
2013-04-18 09:39:00,70.2,58.7,30.05,ESE,113,2.2,4.5,67,0.00,,,0.00,WUHU216HW,2013-04-18 13:39:00,
2013-04-18 09:54:00,71.3,59.3,30.04,SE,135,7.4,7.4,66,0.00,,,0.00,WUHU216HW,2013-04-18 13:54:00,
2013-04-18 10:09:00,72.5,60.5,30.05,SE,135,4.7,6.3,66,0.00,,,0.00,WUHU216HW,2013-04-18 14:09:00,
2013-04-18 10:24:00,73.6,61.1,30.04,ENE,68,3.6,7.6,65,0.00,,,0.00,WUHU216HW,2013-04-18 14:24:00,
2013-04-18 10:39:00,73.6,61.1,30.04,South,180,6.9,7.8,65,0.00,,,0.00,WUHU216HW,2013-04-18 14:39:00,
2013-04-18 10:54:00,74.2,61.2,30.04,SSE,158,8.1,9.4,64,0.00,,,0.00,WUHU216HW,2013-04-18 14:54:00,
2013-04-18 11:09:00,74.3,60.9,30.03,South,180,9.4,9.4,63,0.00,,,0.00,WUHU216HW,2013-04-18 15:09:00,
2013-04-18 11:24:00,74.7,60.9,30.03,SE,135,8.1,8.1,62,0.00,,,0.00,WUHU216HW,2013-04-18 15:24:00,
2013-04-18 11:39:00,75.4,61.1,30.03,ESE,113,4.0,7.6,61,0.00,,,0.00,WUHU216HW,2013-04-18 15:39:00,
2013-04-18 11:54:00,76.0,61.1,30.01,SSE,158,5.6,8.1,60,0.00,,,0.00,WUHU216HW,2013-04-18 15:54:00,
2013-04-18 12:09:00,77.4,61.5,29.99,SSE,158,4.7,9.4,58,0.00,,,0.00,WUHU216HW,2013-04-18 16:09:00,
2013-04-18 12:24:00,78.1,61.7,29.98,ESE,113,3.1,8.1,57,0.00,,,0.00,WUHU216HW,2013-04-18 16:24:00,
2013-04-18 12:39:00,79.2,61.7,29.98,ESE,113,10.3,10.3,55,0.00,,,0.00,WUHU216HW,2013-04-18 16:39:00,
2013-04-18 12:54:00,80.6,62.4,29.97,South,180,3.8,8.9,54,0.00,,,0.00,WUHU216HW,2013-04-18 16:54:00,
2013-04-18 13:09:00,81.7,62.3,29.97,SW,225,4.3,8.7,52,0.00,,,0.00,WUHU216HW,2013-04-18 17:09:00,
2013-04-18 13:24:00,81.9,61.9,29.97,ENE,68,4.5,8.7,51,0.00,,,0.00,WUHU216HW,2013-04-18 17:24:00,
2013-04-18 13:40:00,81.7,60.7,29.96,SSW,203,6.3,9.8,49,0.00,,,0.00,WUHU216HW,2013-04-18 17:40:00,
2013-04-18 13:55:00,83.0,61.2,29.95,ESE,113,7.6,11.2,48,0.00,,,0.00,WUHU216HW,2013-04-18 17:55:00,
2013-04-18 14:10:00,83.9,61.5,29.94,SSE,158,4.7,9.2,47,0.00,,,0.00,WUHU216HW,2013-04-18 18:10:00,
2013-04-18 14:25:00,84.4,61.4,29.94,SW,225,3.6,8.5,46,0.00,,,0.00,WUHU216HW,2013-04-18 18:25:00,
2013-04-18 14:40:00,84.1,61.0,29.93,WSW,248,3.4,13.4,46,0.00,,,0.00,WUHU216HW,2013-04-18 18:40:00,
2013-04-18 14:55:00,85.0,59.3,29.93,WSW,248,10.5,13.9,42,0.00,,,0.00,WUHU216HW,2013-04-18 18:55:00,
2013-04-18 15:10:00,85.7,61.8,29.92,ESE,113,3.4,6.9,45,0.00,,,0.00,WUHU216HW,2013-04-18 19:10:00,
2013-04-18 15:25:00,84.8,61.0,29.92,ESE,113,5.1,9.2,45,0.00,,,0.00,WUHU216HW,2013-04-18 19:25:00,
2013-04-18 15:40:00,84.1,61.7,29.91,WSW,248,9.2,10.5,47,0.00,,,0.00,WUHU216HW,2013-04-18 19:40:00,
2013-04-18 15:55:00,85.3,62.2,29.91,South,180,9.4,9.4,46,0.00,,,0.00,WUHU216HW,2013-04-18 19:55:00,
2013-04-18 16:10:00,85.1,61.4,29.90,SSE,158,2.0,8.9,45,0.00,,,0.00,WUHU216HW,2013-04-18 20:10:00,
2013-04-18 16:25:00,85.3,60.3,29.90,SE,135,4.3,9.2,43,0.00,,,0.00,WUHU216HW,2013-04-18 20:25:00,
2013-04-18 16:40:00,85.0,58.7,29.89,SE,135,6.3,8.5,41,0.00,,,0.00,WUHU216HW,2013-04-18 20:40:00,
2013-04-18 16:55:00,85.3,58.4,29.89,South,180,5.4,8.3,40,0.00,,,0.00,WUHU216HW,2013-04-18 20:55:00,
2013-04-18 17:10:00,86.6,58.0,29.88,SSE,158,5.4,8.1,38,0.00,,,0.00,WUHU216HW,2013-04-18 21:10:00,
2013-04-18 17:25:00,86.0,55.1,29.88,SSE,158,6.5,9.6,35,0.00,,,0.00,WUHU216HW,2013-04-18 21:25:00,
2013-04-18 17:40:00,86.0,55.1,29.87,WSW,248,2.9,6.7,35,0.00,,,0.00,WUHU216HW,2013-04-18 21:40:00,
2013-04-18 17:55:00,86.2,53.6,29.87,SE,135,4.9,8.9,33,0.00,,,0.00,WUHU216HW,2013-04-18 21:55:00,
2013-04-18 18:11:00,86.6,53.9,29.86,SSE,158,6.5,10.5,33,0.00,,,0.00,WUHU216HW,2013-04-18 22:11:00,
2013-04-18 18:26:00,86.0,54.3,29.86,South,180,4.7,10.5,34,0.00,,,0.00,WUHU216HW,2013-04-18 22:26:00,
2013-04-18 18:41:00,85.5,53.8,29.86,SSE,158,5.4,6.7,34,0.00,,,0.00,WUHU216HW,2013-04-18 22:41:00,
2013-04-18 18:56:00,84.8,52.4,29.86,WSW,248,7.4,9.2,33,0.00,,,0.00,WUHU216HW,2013-04-18 22:56:00,
2013-04-18 19:11:00,84.4,52.8,29.85,SW,225,3.6,10.3,34,0.00,,,0.00,WUHU216HW,2013-04-18 23:11:00,
2013-04-18 19:26:00,83.9,53.1,29.85,South,180,2.0,10.3,35,0.00,,,0.00,WUHU216HW,2013-04-18 23:26:00,
2013-04-18 19:41:00,83.2,54.1,29.84,WSW,248,1.8,4.7,37,0.00,,,0.00,WUHU216HW,2013-04-18 23:41:00,
2013-04-18 19:56:00,82.4,55.0,29.85,NE,45,2.5,6.3,39,0.00,,,0.00,WUHU216HW,2013-04-18 23:56:00,
2013-04-18 20:11:00,80.5,55.3,29.87,NW,315,2.7,6.5,42,0.00,,,0.00,WUHU216HW,2013-04-19 00:11:00,
2013-04-18 20:26:00,71.1,55.1,29.87,South,180,0.9,5.8,57,0.00,,,0.00,WUHU216HW,2013-04-19 00:26:00,
2013-04-18 20:41:00,68.6,55.0,29.87,NNW,338,3.6,3.6,62,0.00,,,0.00,WUHU216HW,2013-04-19 00:41:00,
2013-04-18 20:56:00,67.7,55.4,29.89,NW,315,2.0,5.4,65,0.00,,,0.00,WUHU216HW,2013-04-19 00:56:00,
2013-04-18 21:11:00,67.0,55.2,29.89,North,0,3.4,6.0,66,0.00,,,0.00,WUHU216HW,2013-04-19 01:11:00,
2013-04-18 21:26:00,66.4,55.1,29.91,West,270,2.5,3.8,67,0.00,,,0.00,WUHU216HW,2013-04-19 01:26:00,
2013-04-18 21:41:00,66.2,55.7,29.91,WNW,293,1.8,3.4,69,0.00,,,0.00,WUHU216HW,2013-04-19 01:41:00,
2013-04-18 21:56:00,66.2,55.7,29.92,North,0,2.0,2.2,69,0.00,,,0.00,WUHU216HW,2013-04-19 01:56:00,
2013-04-18 22:11:00,66.2,55.7,29.92,NW,315,2.7,2.7,69,0.00,,,0.00,WUHU216HW,2013-04-19 02:11:00,
2013-04-18 22:26:00,66.1,56.0,29.92,WNW,293,1.8,6.3,70,0.00,,,0.00,WUHU216HW,2013-04-19 02:26:00,
2013-04-18 22:41:00,66.1,55.6,29.91,East,90,0.9,0.9,69,0.00,,,0.00,WUHU216HW,2013-04-19 02:41:00,
2013-04-18 22:57:00,66.1,56.0,29.89,SSW,203,0.4,1.1,70,0.00,,,0.00,WUHU216HW,2013-04-19 02:57:00,
2013-04-18 23:12:00,66.2,55.7,29.89,SW,225,0.4,0.9,69,0.00,,,0.00,WUHU216HW,2013-04-19 03:12:00,
2013-04-18 23:27:00,66.2,55.7,29.88,SE,135,0.4,1.6,69,0.00,,,0.00,WUHU216HW,2013-04-19 03:27:00,
2013-04-18 23:42:00,66.1,55.6,29.87,South,180,0.7,1.1,69,0.00,,,0.00,WUHU216HW,2013-04-19 03:42:00,
2013-04-18 23:57:00,66.1,55.6,29.88,East,90,0.7,2.0,69,0.00,,,0.00,WUHU216HW,2013-04-19 03:57:00,